Terminal Aerodrome Forecast
Issued by NWS Chicago, IL

Home | Current Version | Previous Version | Text Only | Print | Product List | Glossary Off
Versions: 1 2 3 4 5 6 7 8 9 10 11 12 13 14 15 16 17 18 19 20 21 22 23 24 25 26 27 28 29 30 31 32 33 34 35 36

000
FTUS43 KLOT 252100 AAC
TAFRFD
TAF AMD
KRFD 252107Z 2521/2618 04008KT 1SM -SN BR BKN014 OVC020
      TEMPO 2521/2601 3/4SM -SN BR SCT009 OVC012
     FM260700 02011KT 5SM -SN SCT014 OVC020
     FM261200 01011KT P6SM BKN035=

USA.gov is the U.S. government's official web portal to all federal, state and local government web resources and services.